Startpagina
METAR-TAF:

METAR-TAF

Vliegvelden :

Alma-Ata, Kazachstan

Luchthaven Almaty

breedte: 43-14N, lengte: 076-56E, hoogte: 847 m

Actueel weer

Dit bericht is 24 minuten geleden gemaakt, om 13:00 UTC
Wind 4 kt uit het oostnoordoosten
Temperatuur 23°C
Vochtigheid 25%
Druk 1019 hPa
Zicht 10 km of meer
Weinig wolken op 20000 ft

METAR: UAAA 191300Z 06002MPS 9999 FEW200 23/02 Q1019 R05L/CLRD65 NOSIG

Tijdstip: 19:24 (13:24 UTC)

Verwachting

Dit bericht is 2 uur en het 24 minuten geleden gemaakt, om 11:00 UTC
Verwachting geldig van 19 om 12 UTC tot 20 om 12 UTC
Wind 10 kt uit het zuidwesten
Zicht 10 km of meer
Tijdelijke
van 19 om 13 UTC tot 19 om 20 UTC
Wind 8 kt uit het zuidzuidoosten
Zicht: 3000 m
rook
Wijzigt naar
van 20 om 03 UTC tot 20 om 04 UTC
Wind 10 kt uit het noordnoordwesten

TAF: UAAA 191100Z 1912/2012 22005MPS 9999 NSC TX27/2009Z TN11/2001Z TEMPO 1913/1920 16004MPS 3000 FU BECMG 2003/2004 34005MPS

Waarnemingen en weersverwachtingen van meer dan 4000 vliegvelden (METAR en TAF).

De beschikbare stations zijn de gele en rode punten op de kaart.

Ga met uw muis naar het station om de naam te zien.

Klik dan om waarnemingen en weersverwachtingen te zien.

kaart wijzigen: klik op de groene knoppen met een zwart kruis om in te zoomen, op de groene knop met een streepje om uit te zoomen of op de groene pijlen voor aangrenzende kaarten.


METAR-TAF: